createdAt,value
2022-08-26T00:01:14.996Z,32.89
2022-08-26T00:03:41.971Z,32.81
2022-08-26T00:06:09.472Z,32.66
2022-08-26T00:08:39.496Z,32.66
2022-08-26T00:11:08.596Z,32.71
2022-08-26T00:13:36.771Z,32.87
2022-08-26T00:16:04.890Z,32.77
2022-08-26T00:18:31.800Z,32.76
2022-08-26T00:21:06.939Z,32.79
2022-08-26T00:23:34.442Z,32.78
2022-08-26T00:26:01.651Z,32.84
2022-08-26T00:28:29.227Z,32.91
2022-08-26T00:30:57.801Z,32.80
2022-08-26T00:33:24.750Z,32.79
2022-08-26T00:35:51.724Z,32.79
2022-08-26T00:38:18.642Z,32.86
2022-08-26T00:40:47.765Z,32.88
2022-08-26T00:43:15.916Z,32.94
2022-08-26T00:45:46.583Z,32.83
2022-08-26T00:48:14.011Z,32.87
2022-08-26T00:50:42.803Z,32.81
2022-08-26T00:53:24.041Z,32.85
2022-08-26T00:56:00.762Z,32.98
2022-08-26T00:58:28.635Z,32.96
2022-08-26T01:00:55.635Z,33.05
2022-08-26T01:03:25.473Z,33.18
2022-08-26T01:05:55.341Z,33.21
2022-08-26T01:08:24.463Z,33.15
2022-08-26T01:10:53.847Z,33.13
2022-08-26T01:13:23.006Z,33.19
2022-08-26T01:15:57.218Z,33.32
2022-08-26T01:18:25.502Z,33.31
2022-08-26T01:21:17.128Z,33.47
2022-08-26T01:23:49.606Z,33.34
2022-08-26T01:26:22.798Z,33.43
2022-08-26T01:28:52.225Z,33.46
2022-08-26T01:31:21.106Z,33.48
2022-08-26T01:33:53.166Z,33.58
2022-08-26T01:36:20.321Z,33.58
2022-08-26T01:38:48.190Z,33.57
2022-08-26T01:41:19.582Z,33.64
2022-08-26T01:43:48.431Z,33.74
2022-08-26T01:46:15.521Z,33.80
2022-08-26T01:48:43.150Z,33.77
2022-08-26T01:51:10.919Z,33.91
2022-08-26T01:53:38.894Z,33.84
2022-08-26T01:56:08.812Z,33.83
2022-08-26T01:58:40.785Z,33.87
2022-08-26T02:01:07.752Z,34.00
2022-08-26T02:03:38.841Z,34.11
2022-08-26T02:06:10.777Z,34.08
2022-08-26T02:09:04.731Z,34.15
2022-08-26T02:11:31.680Z,34.01
2022-08-26T02:14:03.443Z,34.02
2022-08-26T02:16:33.603Z,34.06
2022-08-26T02:19:01.536Z,33.98
2022-08-26T02:21:30.835Z,33.92
2022-08-26T02:23:57.786Z,33.81
2022-08-26T02:26:27.090Z,33.98
2022-08-26T02:28:59.055Z,34.05
2022-08-26T02:31:26.752Z,34.02
2022-08-26T02:33:53.666Z,33.99
2022-08-26T02:36:22.257Z,33.97
2022-08-26T02:38:49.405Z,33.99
2022-08-26T02:41:19.630Z,33.92
2022-08-26T02:43:50.674Z,34.04
2022-08-26T02:46:27.671Z,33.99
2022-08-26T02:48:55.155Z,34.02
2022-08-26T02:51:22.575Z,33.99
2022-08-26T02:53:50.038Z,34.02
2022-08-26T02:56:18.213Z,33.96
2022-08-26T02:58:45.770Z,34.04
2022-08-26T03:01:30.239Z,34.05
2022-08-26T03:03:59.330Z,34.03
2022-08-26T03:06:26.174Z,34.16
2022-08-26T03:08:53.228Z,34.15
2022-08-26T03:11:20.690Z,34.11
2022-08-26T03:13:48.868Z,33.89
2022-08-26T03:16:16.096Z,33.94
2022-08-26T03:18:43.688Z,33.99
2022-08-26T03:21:19.440Z,33.93
2022-08-26T03:23:46.523Z,33.99
2022-08-26T03:26:14.567Z,33.92
2022-08-26T03:29:02.125Z,33.89
2022-08-26T03:31:29.905Z,33.88
2022-08-26T03:33:59.683Z,33.82
2022-08-26T03:36:27.245Z,33.86
2022-08-26T03:38:54.706Z,33.95
2022-08-26T03:41:22.271Z,33.88
2022-08-26T03:43:52.090Z,33.89
2022-08-26T03:46:21.039Z,33.99
2022-08-26T03:48:48.446Z,34.02
2022-08-26T03:51:18.545Z,33.95
2022-08-26T03:53:46.583Z,34.02
2022-08-26T03:56:13.496Z,34.09
2022-08-26T03:58:42.865Z,34.19
2022-08-26T04:01:10.779Z,34.20
2022-08-26T04:03:56.472Z,34.17
2022-08-26T04:06:38.601Z,34.18
2022-08-26T04:09:11.803Z,34.29
2022-08-26T04:11:39.855Z,34.34
2022-08-26T04:14:09.288Z,34.35
2022-08-26T04:16:39.011Z,34.29
2022-08-26T04:19:07.028Z,34.32
2022-08-26T04:21:35.212Z,34.25
2022-08-26T04:24:04.723Z,34.13
2022-08-26T04:26:39.338Z,34.12
2022-08-26T04:29:16.080Z,34.14
2022-08-26T04:31:43.317Z,34.08
2022-08-26T04:34:10.855Z,34.10
2022-08-26T04:36:38.835Z,34.31
2022-08-26T04:39:05.784Z,34.28
2022-08-26T04:41:32.938Z,34.12
2022-08-26T04:43:59.989Z,34.07
2022-08-26T04:46:27.777Z,34.01
2022-08-26T04:48:55.245Z,34.10
2022-08-26T04:51:33.539Z,33.99
2022-08-26T04:54:00.699Z,34.09
2022-08-26T04:56:30.694Z,34.02
2022-08-26T04:58:59.102Z,33.98
2022-08-26T05:01:27.201Z,33.97
2022-08-26T05:03:54.912Z,34.15
2022-08-26T05:06:22.099Z,34.00
2022-08-26T05:08:49.160Z,33.98
2022-08-26T05:11:16.929Z,34.11
2022-08-26T05:13:46.443Z,33.92
2022-08-26T05:16:16.059Z,33.88
2022-08-26T05:18:43.642Z,33.72
2022-08-26T05:21:42.206Z,33.64
2022-08-26T05:24:11.406Z,33.69
2022-08-26T05:26:38.870Z,33.54
2022-08-26T05:29:06.946Z,33.54
2022-08-26T05:31:34.454Z,33.54
2022-08-26T05:34:03.746Z,33.48
2022-08-26T05:36:33.919Z,33.30
2022-08-26T05:39:04.375Z,33.23
2022-08-26T05:41:34.296Z,33.32
2022-08-26T05:44:06.091Z,33.18
2022-08-26T05:46:34.445Z,33.10
2022-08-26T05:49:01.787Z,32.87
2022-08-26T05:51:30.480Z,32.69
2022-08-26T05:53:58.957Z,32.83
2022-08-26T05:56:27.833Z,32.73
2022-08-26T05:58:56.064Z,32.91
2022-08-26T06:01:26.866Z,32.85
2022-08-26T06:03:56.749Z,32.68
2022-08-26T06:06:31.265Z,32.68
2022-08-26T06:08:59.569Z,32.79
2022-08-26T06:11:27.368Z,32.94
2022-08-26T06:13:58.927Z,32.91
2022-08-26T06:16:28.636Z,32.85
2022-08-26T06:18:57.983Z,32.85
2022-08-26T06:21:25.604Z,32.90
2022-08-26T06:24:13.884Z,32.90
2022-08-26T06:26:42.750Z,32.70
2022-08-26T06:29:24.726Z,32.85
2022-08-26T06:31:53.222Z,32.82
2022-08-26T06:34:21.292Z,32.94
2022-08-26T06:36:49.882Z,32.66
2022-08-26T06:39:21.220Z,32.78
2022-08-26T06:41:48.921Z,32.60
2022-08-26T06:44:17.367Z,32.54
2022-08-26T06:46:44.521Z,32.47
2022-08-26T06:49:11.716Z,32.34
2022-08-26T06:51:39.452Z,32.37
2022-08-26T06:54:07.292Z,32.30
2022-08-26T06:56:40.001Z,32.25
2022-08-26T06:59:08.150Z,32.06
2022-08-26T07:01:38.651Z,32.08
2022-08-26T07:04:11.050Z,31.86
2022-08-26T07:06:40.719Z,31.72
2022-08-26T07:09:09.774Z,31.69
2022-08-26T07:11:38.158Z,31.59
2022-08-26T07:14:06.423Z,31.11
2022-08-26T07:16:33.679Z,30.72
2022-08-26T07:19:10.755Z,30.66
2022-08-26T07:21:42.318Z,30.65
2022-08-26T07:24:10.946Z,30.45
2022-08-26T07:26:38.167Z,30.03
2022-08-26T07:29:05.817Z,29.91
2022-08-26T07:31:39.229Z,29.98
2022-08-26T07:34:10.992Z,29.77
2022-08-26T07:36:38.027Z,29.46
2022-08-26T07:39:05.994Z,29.41
2022-08-26T07:41:34.140Z,28.81
2022-08-26T07:44:01.092Z,28.49
2022-08-26T07:46:30.350Z,28.28
2022-08-26T07:48:57.874Z,28.34
2022-08-26T07:51:25.446Z,28.52
2022-08-26T07:53:53.170Z,28.44
2022-08-26T07:56:23.401Z,28.26
2022-08-26T07:58:51.985Z,27.86
2022-08-26T08:01:24.037Z,28.07
2022-08-26T08:03:51.911Z,28.16
2022-08-26T08:06:27.244Z,28.22
2022-08-26T08:08:56.221Z,28.08
2022-08-26T08:11:24.294Z,28.06
2022-08-26T08:13:56.086Z,28.05
2022-08-26T08:16:25.163Z,28.08
2022-08-26T08:18:54.380Z,28.19
2022-08-26T08:21:24.774Z,28.09
2022-08-26T08:23:55.926Z,28.20
2022-08-26T08:26:24.047Z,28.29
2022-08-26T08:28:52.118Z,28.40
2022-08-26T08:31:52.564Z,28.32
2022-08-26T08:34:14.089Z,28.52
2022-08-26T08:36:42.779Z,28.42
2022-08-26T08:39:10.440Z,28.46
2022-08-26T08:41:37.748Z,28.67
2022-08-26T08:44:04.646Z,28.80
2022-08-26T08:46:32.938Z,28.91
2022-08-26T08:49:04.428Z,28.89
2022-08-26T08:51:40.028Z,28.86
2022-08-26T08:54:08.003Z,28.83
2022-08-26T08:56:37.921Z,28.98
2022-08-26T08:59:21.387Z,28.65
2022-08-26T09:01:52.573Z,28.70
2022-08-26T09:05:03.176Z,28.34
2022-08-26T09:07:40.398Z,27.84
2022-08-26T09:10:25.843Z,27.86
2022-08-26T09:12:53.407Z,27.63
2022-08-26T09:15:30.576Z,27.48
2022-08-26T09:18:16.285Z,27.17
2022-08-26T09:21:05.454Z,26.99
2022-08-26T09:23:35.977Z,26.78
2022-08-26T09:26:19.526Z,26.69
2022-08-26T09:28:49.277Z,26.40
2022-08-26T09:31:21.472Z,26.53
2022-08-26T09:34:03.547Z,26.54
2022-08-26T09:36:39.467Z,26.48
2022-08-26T09:39:24.544Z,26.33
2022-08-26T09:42:05.623Z,26.00
2022-08-26T09:44:35.337Z,25.38
2022-08-26T09:47:07.508Z,25.39
2022-08-26T09:49:41.136Z,25.00
2022-08-26T09:52:14.921Z,25.14
2022-08-26T09:54:44.085Z,25.23
2022-08-26T09:57:16.498Z,24.83
2022-08-26T09:59:43.553Z,24.51
2022-08-26T10:02:19.816Z,24.75
2022-08-26T10:04:55.161Z,24.73
2022-08-26T10:07:46.579Z,24.50
2022-08-26T10:10:24.279Z,24.61
2022-08-26T10:12:58.443Z,24.43
2022-08-26T10:15:26.053Z,24.29
2022-08-26T10:18:11.842Z,24.06
2022-08-26T10:20:49.543Z,24.20
2022-08-26T10:23:23.281Z,23.93
2022-08-26T10:25:59.147Z,23.94
2022-08-26T10:28:38.964Z,23.97
2022-08-26T10:31:29.023Z,23.98
2022-08-26T10:34:00.069Z,24.01
2022-08-26T10:37:10.829Z,24.05
2022-08-26T10:39:57.270Z,24.23
2022-08-26T10:42:44.694Z,24.19
2022-08-26T10:45:15.510Z,24.19
2022-08-26T10:47:54.751Z,24.25
2022-08-26T10:50:30.930Z,24.12
2022-08-26T10:53:02.592Z,24.16
2022-08-26T10:55:30.050Z,24.45
2022-08-26T10:58:37.036Z,24.65
2022-08-26T11:01:40.850Z,24.41
2022-08-26T11:04:23.939Z,24.43
2022-08-26T11:07:31.715Z,24.45
2022-08-26T11:10:02.310Z,24.48
2022-08-26T11:12:37.266Z,24.61
2022-08-26T11:15:12.291Z,24.77
2022-08-26T11:17:47.119Z,24.84
2022-08-26T11:20:23.782Z,25.07
2022-08-26T11:23:27.402Z,25.04
2022-08-26T11:26:10.119Z,24.98
2022-08-26T11:28:44.186Z,24.93
2022-08-26T11:31:12.148Z,24.64
2022-08-26T11:33:50.904Z,24.50
2022-08-26T11:36:36.648Z,24.08
2022-08-26T11:39:58.197Z,24.06
2022-08-26T11:42:31.436Z,24.00
2022-08-26T11:44:59.869Z,23.89
2022-08-26T11:47:30.859Z,23.78
2022-08-26T11:50:28.024Z,23.66
2022-08-26T11:52:56.957Z,23.56
2022-08-26T11:55:24.361Z,23.61
2022-08-26T11:57:56.340Z,23.77
2022-08-26T12:00:33.520Z,23.73
2022-08-26T12:03:02.625Z,23.67
2022-08-26T12:05:31.556Z,23.54
2022-08-26T12:08:02.613Z,23.53
2022-08-26T12:10:32.897Z,23.63
2022-08-26T12:13:02.617Z,23.26
2022-08-26T12:15:31.131Z,23.02
2022-08-26T12:18:00.608Z,22.70
2022-08-26T12:20:46.333Z,22.82
2022-08-26T12:23:36.366Z,22.69
2022-08-26T12:26:13.266Z,22.55
2022-08-26T12:28:45.030Z,22.32
2022-08-26T12:31:12.531Z,22.13
2022-08-26T12:33:44.769Z,21.98
2022-08-26T12:36:12.128Z,21.93
2022-08-26T12:38:40.824Z,21.79
2022-08-26T12:41:08.735Z,21.80
2022-08-26T12:43:39.454Z,21.60
2022-08-26T12:46:07.071Z,21.12
2022-08-26T12:48:38.905Z,21.24
2022-08-26T12:51:08.623Z,21.34
2022-08-26T12:53:41.779Z,21.38
2022-08-26T12:56:39.025Z,21.01
2022-08-26T12:59:23.847Z,21.07
2022-08-26T13:01:51.844Z,20.95
2022-08-26T13:05:00.928Z,21.17
2022-08-26T13:07:30.617Z,21.14
2022-08-26T13:09:58.954Z,21.00
2022-08-26T13:12:25.947Z,20.74
2022-08-26T13:14:53.811Z,20.76
2022-08-26T13:17:21.374Z,20.88
2022-08-26T13:19:49.239Z,20.78
2022-08-26T13:22:16.290Z,20.76
2022-08-26T13:24:43.960Z,21.01
2022-08-26T13:27:13.059Z,21.27
2022-08-26T13:29:41.523Z,21.28
2022-08-26T13:32:08.681Z,21.20
2022-08-26T13:34:36.756Z,21.25
2022-08-26T13:37:04.843Z,21.36
2022-08-26T13:39:31.883Z,21.29
2022-08-26T13:41:58.916Z,21.24
2022-08-26T13:44:26.490Z,21.46
2022-08-26T13:46:53.862Z,21.67
2022-08-26T13:49:21.102Z,21.55
2022-08-26T13:51:48.535Z,21.57
2022-08-26T13:54:15.619Z,21.62
2022-08-26T13:56:42.875Z,21.66
2022-08-26T13:59:10.231Z,21.69
2022-08-26T14:01:39.847Z,21.60
2022-08-26T14:04:08.125Z,21.54
2022-08-26T14:06:39.582Z,21.43
2022-08-26T14:09:09.089Z,21.50
2022-08-26T14:11:50.727Z,21.52
2022-08-26T14:14:22.046Z,21.52
2022-08-26T14:16:58.839Z,21.42
2022-08-26T14:19:26.682Z,21.37
2022-08-26T14:21:54.552Z,21.38
2022-08-26T14:24:22.322Z,21.44
2022-08-26T14:26:49.676Z,21.50
2022-08-26T14:29:17.854Z,21.55
2022-08-26T14:31:45.693Z,21.52
2022-08-26T14:34:13.184Z,21.43
2022-08-26T14:36:40.852Z,21.48
2022-08-26T14:39:12.100Z,21.62
2022-08-26T14:41:45.702Z,21.72
2022-08-26T14:44:22.379Z,22.01
2022-08-26T14:46:50.424Z,21.98
2022-08-26T14:49:18.526Z,22.05
2022-08-26T14:51:45.786Z,22.12
2022-08-26T14:54:13.462Z,22.20
2022-08-26T14:56:54.327Z,22.27
2022-08-26T14:59:24.030Z,22.43
2022-08-26T15:01:51.328Z,22.42
2022-08-26T15:04:19.672Z,22.53
2022-08-26T15:06:47.209Z,22.57
2022-08-26T15:09:14.706Z,22.60
2022-08-26T15:11:47.560Z,22.67
2022-08-26T15:14:19.089Z,22.87
2022-08-26T15:16:49.677Z,22.88
2022-08-26T15:19:17.826Z,22.79
2022-08-26T15:21:45.794Z,22.80
2022-08-26T15:24:13.559Z,22.99
2022-08-26T15:26:40.608Z,23.29
2022-08-26T15:29:08.165Z,23.37
2022-08-26T15:31:35.707Z,23.53
2022-08-26T15:34:09.545Z,23.57
2022-08-26T15:36:39.342Z,23.58
2022-08-26T15:39:07.271Z,23.59
2022-08-26T15:41:35.093Z,23.67
2022-08-26T15:44:02.230Z,23.69
2022-08-26T15:46:32.141Z,23.74
2022-08-26T15:48:59.324Z,23.63
2022-08-26T15:51:34.342Z,23.87
2022-08-26T15:54:02.606Z,23.74
2022-08-26T15:56:34.575Z,23.73
2022-08-26T15:59:02.340Z,24.02
2022-08-26T16:01:30.381Z,24.16
2022-08-26T16:03:57.570Z,24.17
2022-08-26T16:06:28.455Z,24.31
2022-08-26T16:08:56.799Z,24.39
2022-08-26T16:11:24.284Z,24.44
2022-08-26T16:13:51.404Z,24.48
2022-08-26T16:16:18.936Z,24.57
2022-08-26T16:18:46.538Z,24.47
2022-08-26T16:21:31.909Z,24.54
2022-08-26T16:23:59.575Z,24.89
2022-08-26T16:26:29.083Z,24.79
2022-08-26T16:28:56.648Z,25.06
2022-08-26T16:31:23.879Z,25.03
2022-08-26T16:33:51.668Z,25.19
2022-08-26T16:36:20.307Z,25.26
2022-08-26T16:38:50.327Z,25.30
2022-08-26T16:41:17.944Z,25.37
2022-08-26T16:43:45.708Z,25.60
2022-08-26T16:46:14.439Z,25.73
2022-08-26T16:48:42.313Z,25.72
2022-08-26T16:51:14.140Z,25.85
2022-08-26T16:53:41.338Z,26.09
2022-08-26T16:56:15.563Z,26.13
2022-08-26T16:58:42.772Z,26.30
2022-08-26T17:01:17.363Z,26.39
2022-08-26T17:03:44.651Z,26.42
2022-08-26T17:06:12.320Z,26.54
2022-08-26T17:08:39.879Z,26.54
2022-08-26T17:11:08.818Z,26.63
2022-08-26T17:13:36.435Z,26.54
2022-08-26T17:16:05.585Z,26.83
2022-08-26T17:18:33.722Z,26.99
2022-08-26T17:21:07.658Z,27.02
2022-08-26T17:23:35.487Z,27.19
2022-08-26T17:26:03.252Z,27.17
2022-08-26T17:28:30.296Z,27.28
2022-08-26T17:30:58.733Z,27.25
2022-08-26T17:33:25.754Z,27.55
2022-08-26T17:35:53.261Z,27.46
2022-08-26T17:38:22.400Z,27.54
2022-08-26T17:40:50.163Z,27.57
2022-08-26T17:43:18.369Z,27.58
2022-08-26T17:45:45.695Z,27.86
2022-08-26T17:48:12.749Z,27.78
2022-08-26T17:50:41.452Z,27.97
2022-08-26T17:53:08.788Z,28.06
2022-08-26T17:55:41.809Z,28.06
2022-08-26T17:58:12.237Z,28.06
2022-08-26T18:00:46.445Z,28.10
2022-08-26T18:03:13.799Z,28.25
2022-08-26T18:05:42.849Z,28.21
2022-08-26T18:08:09.877Z,28.32
2022-08-26T18:10:36.885Z,28.22
2022-08-26T18:13:04.479Z,28.53
2022-08-26T18:15:31.755Z,28.47
2022-08-26T18:17:58.856Z,28.50
2022-08-26T18:20:25.908Z,28.62
2022-08-26T18:22:56.232Z,28.82
2022-08-26T18:25:23.697Z,29.03
2022-08-26T18:27:51.871Z,29.18
2022-08-26T18:30:23.026Z,29.16
2022-08-26T18:32:50.272Z,29.19
2022-08-26T18:35:17.732Z,29.23
2022-08-26T18:37:45.459Z,29.32
2022-08-26T18:40:14.470Z,29.35
2022-08-26T18:42:41.652Z,29.41
2022-08-26T18:45:09.628Z,29.30
2022-08-26T18:47:43.130Z,29.61
2022-08-26T18:50:11.327Z,29.59
2022-08-26T18:52:38.460Z,29.61
2022-08-26T18:55:06.028Z,29.66
2022-08-26T18:57:33.181Z,29.67
2022-08-26T19:00:00.950Z,29.73
2022-08-26T19:02:29.080Z,29.98
2022-08-26T19:04:57.609Z,30.03
2022-08-26T19:07:24.814Z,29.97
2022-08-26T19:09:54.068Z,30.05
2022-08-26T19:12:21.840Z,30.19
2022-08-26T19:14:49.503Z,30.31
2022-08-26T19:17:17.785Z,30.20
2022-08-26T19:19:49.960Z,30.36
2022-08-26T19:22:16.943Z,30.45
2022-08-26T19:24:43.854Z,30.58
2022-08-26T19:27:14.726Z,30.56
2022-08-26T19:29:42.669Z,30.61
2022-08-26T19:32:10.588Z,30.48
2022-08-26T19:34:39.402Z,30.68
2022-08-26T19:37:06.584Z,30.72
2022-08-26T19:39:34.971Z,30.74
2022-08-26T19:42:02.639Z,30.77
2022-08-26T19:44:48.432Z,30.73
2022-08-26T19:47:15.890Z,30.81
2022-08-26T19:49:43.039Z,30.76
2022-08-26T19:52:12.487Z,30.72
2022-08-26T19:54:39.808Z,30.80
2022-08-26T19:57:07.059Z,30.89
2022-08-26T19:59:36.392Z,30.81
2022-08-26T20:02:10.046Z,30.76
2022-08-26T20:04:38.912Z,30.77
2022-08-26T20:07:06.633Z,30.87
2022-08-26T20:09:34.402Z,31.73
2022-08-26T20:12:01.881Z,32.13
2022-08-26T20:14:30.779Z,32.31
2022-08-26T20:16:59.704Z,32.05
2022-08-26T20:19:46.578Z,32.11
2022-08-26T20:22:13.981Z,32.04
2022-08-26T20:24:43.559Z,32.04
2022-08-26T20:27:11.434Z,31.94
2022-08-26T20:29:38.998Z,31.76
2022-08-26T20:32:07.557Z,31.97
2022-08-26T20:34:35.046Z,32.06
2022-08-26T20:37:03.222Z,32.00
2022-08-26T20:39:32.833Z,31.88
2022-08-26T20:42:01.932Z,31.93
2022-08-26T20:44:38.616Z,31.99
2022-08-26T20:47:16.721Z,31.85
2022-08-26T20:49:46.823Z,32.00
2022-08-26T20:52:20.966Z,31.98
2022-08-26T20:54:48.621Z,31.96
2022-08-26T20:57:15.874Z,31.96
2022-08-26T20:59:43.947Z,32.00
2022-08-26T21:02:11.815Z,31.96
2022-08-26T21:04:39.043Z,31.90
2022-08-26T21:07:06.372Z,31.96
2022-08-26T21:09:33.783Z,31.82
2022-08-26T21:12:01.857Z,31.97
2022-08-26T21:14:29.212Z,32.03
2022-08-26T21:16:57.160Z,32.13
2022-08-26T21:19:24.485Z,32.14
2022-08-26T21:21:51.491Z,32.18
2022-08-26T21:24:18.850Z,32.19
2022-08-26T21:26:46.003Z,32.27
2022-08-26T21:29:14.182Z,32.44
2022-08-26T21:31:46.764Z,32.44
2022-08-26T21:34:20.602Z,32.49
2022-08-26T21:36:48.644Z,32.57
2022-08-26T21:39:16.614Z,32.48
2022-08-26T21:41:44.740Z,32.61
2022-08-26T21:44:13.064Z,32.54
2022-08-26T21:46:40.438Z,32.60
2022-08-26T21:49:10.257Z,32.75
2022-08-26T21:51:42.115Z,32.81
2022-08-26T21:54:11.222Z,32.81
2022-08-26T21:56:40.986Z,32.83
2022-08-26T21:59:09.717Z,32.90
2022-08-26T22:01:38.068Z,33.07
2022-08-26T22:04:06.279Z,33.20
2022-08-26T22:06:34.107Z,33.28
2022-08-26T22:09:01.143Z,33.23
2022-08-26T22:11:28.706Z,33.33
2022-08-26T22:13:57.152Z,33.46
2022-08-26T22:16:27.035Z,33.55
2022-08-26T22:18:55.089Z,33.49
2022-08-26T22:21:24.597Z,33.73
2022-08-26T22:23:51.701Z,33.72
2022-08-26T22:26:25.837Z,33.74
2022-08-26T22:28:58.849Z,34.02
2022-08-26T22:31:37.096Z,35.19
2022-08-26T22:34:10.424Z,36.07
2022-08-26T22:36:39.836Z,36.95
2022-08-26T22:39:10.614Z,36.99
2022-08-26T22:41:37.924Z,37.14
2022-08-26T22:44:04.972Z,37.29
2022-08-26T22:46:34.994Z,37.55
2022-08-26T22:49:02.362Z,37.60
2022-08-26T22:51:30.126Z,37.82
2022-08-26T22:53:57.171Z,38.25
2022-08-26T22:56:24.268Z,38.89
2022-08-26T22:58:51.379Z,39.36
2022-08-26T23:01:18.617Z,39.43
2022-08-26T23:03:46.291Z,39.69
2022-08-26T23:06:13.453Z,39.85
2022-08-26T23:08:40.913Z,40.18
2022-08-26T23:11:09.703Z,40.45
2022-08-26T23:13:36.752Z,40.61
2022-08-26T23:16:06.553Z,40.91
2022-08-26T23:18:33.621Z,40.95
2022-08-26T23:21:00.673Z,40.88
2022-08-26T23:23:27.930Z,41.34
2022-08-26T23:25:55.458Z,41.63
2022-08-26T23:28:22.749Z,41.67
2022-08-26T23:30:50.211Z,41.48
2022-08-26T23:33:17.182Z,41.68
2022-08-26T23:35:44.215Z,41.41
2022-08-26T23:38:11.702Z,41.45
2022-08-26T23:40:41.393Z,41.77
2022-08-26T23:43:09.780Z,41.64
2022-08-26T23:45:36.960Z,41.63
2022-08-26T23:48:04.805Z,41.76
2022-08-26T23:50:50.601Z,41.87
2022-08-26T23:53:21.373Z,41.77
2022-08-26T23:55:52.185Z,41.53
2022-08-26T23:58:20.262Z,41.31
